Aérodrome :
LOGIN :

S'inscrire | Disclaimer

   EN    FR    IT 

 










Légende :    VFR   VFR Marginal   IFR   IFR Intensif   IFR Très Intensif
Visi : 
Plafond : 
>= 8 km
>= 3000ft
5 à 8 km
1000 à 3000 ft
1500m à 5 km
500 à 1000 ft
800 à 1500m
200 à 500 ft
< 800m
< 200 ft
Symboles :   Orages  Brouillard  Fortes neiges  Fortes précipitations  Vent > 20 kt
SIGMETs :   Divers  Orages  Givrage  Turbulence  Onde Orograph.  Cendres Volcan.






- Altitude de l'aérodrome : 597 ft
- Code IATA : PDV


LBPD - Plovdiv

DERNIER METAR :
  • 271100Z AUTO 28008KT 9999 FEW029 BKN065 09/05 Q1002 R99/29//95 NOSIG

METARs EXPIRÉS :
  • 271030Z AUTO 28012KT 9999 -SHRA OVC061 08/06 Q1002 RESHRA R99/29//95 TEMPO 5000 RA
  • 271000Z AUTO 30019KT 9999 -SHRA FEW013 SCT037 OVC046 08/06 Q1002 R12/29//95 TEMPO 5000 RA
  • 270930Z AUTO 30021KT 9999 OVC058 11/03 Q1002 TEMPO 5000 RA
  • 270900Z AUTO 08009KT 360V100 9999 OVC065 16/01 Q1000 NOSIG
  • 270830Z AUTO 12011KT 080V160 9999 FEW056 BKN065 17/02 Q1000 NOSIG

TAF TAF LBPD
Valide du 27 à 06h jusqu'au 28 à 06h UTC


270500Z 2706/2806 29010KT 9999 SCT060
BECMG 2707/2709 30020G30KT
TEMPO 2709/2715 5000 SHRA SCT015 SCT030CB BKN040
PROB40 2710/2712 4000 TSRA
BECMG 2800/2802 27010KT



MET'MAP, la Météo Aéronautique d'un coup d'oeil ! - Copyright ORBIFLY Décembre 2007 - Disclaimer

ORBIFLY MET'MAP TEAM :

Programmation & Développement : Alexandra Zaïnal
Sur une idée originale de : Baudouin d'Aumeries
Assistance à la programmation : Marc-Olivier Méhu
Soutien technique & logistique : Manuel Goepfert

Contact : metmap@orbifly.com




SOURCES & CREDITS :

   NOAA